Dolores, Spain
Current Conditions -  °F | °C
As of 10:00 AM on Monday 22 Dec 2014 (Local Time) from LEAL Reporting Station
Few Clouds Few Clouds  
Wind Chill: 54°   Ceiling: Unl
Heat Index: 54°   Visibility: 6mi
Dew Point: 48°   Wind: 1mph
Humidity: 82%   Direction: NA
Pressure: 30.5"   Gusts: NA
Location:  38.14°N, 0.77°W
Report Text: LEAL 220900Z VRB01KT 9999 FEW016 12/09 Q1033 NOSIG
Loading
Personal Weather Stations






























Interactive Weather Map New forecast layout! Learn more

10-Day Weather Forecast

Advertisements
Track Severe Weather on mobile